createdAt,value
2019-02-22T00:00:41.036Z,71.77
2019-02-22T00:03:28.916Z,68.43
2019-02-22T00:06:17.127Z,74.87
2019-02-22T00:09:06.467Z,73.40
2019-02-22T00:11:54.947Z,76.90
2019-02-22T00:14:42.449Z,74.07
2019-02-22T00:17:30.268Z,75.90
2019-02-22T00:20:18.752Z,75.60
2019-02-22T00:23:07.347Z,74.30
2019-02-22T00:25:54.948Z,73.00
2019-02-22T00:28:43.245Z,76.97
2019-02-22T00:31:31.809Z,79.07
2019-02-22T00:34:20.520Z,78.87
2019-02-22T00:37:09.286Z,83.53
2019-02-22T00:39:57.360Z,78.70
2019-02-22T00:42:46.302Z,78.57
2019-02-22T00:45:34.325Z,83.20
2019-02-22T00:48:22.943Z,82.03
2019-02-22T00:51:11.198Z,79.53
2019-02-22T00:53:59.658Z,81.13
2019-02-22T00:56:47.179Z,87.43
2019-02-22T00:59:35.292Z,90.10
2019-02-22T01:02:23.644Z,84.87
2019-02-22T01:05:11.311Z,90.17
2019-02-22T01:07:59.526Z,84.87
2019-02-22T01:10:47.911Z,87.27
2019-02-22T01:13:36.149Z,83.93
2019-02-22T01:16:24.256Z,84.47
2019-02-22T01:19:11.835Z,86.83
2019-02-22T01:21:59.864Z,86.33
2019-02-22T01:24:47.800Z,88.63
2019-02-22T01:27:36.245Z,89.70
2019-02-22T01:30:24.607Z,93.17
2019-02-22T01:33:12.916Z,93.43
2019-02-22T01:36:01.252Z,83.90
2019-02-22T01:38:49.721Z,100.13
2019-02-22T01:41:38.176Z,88.10
2019-02-22T01:44:26.411Z,94.33
2019-02-22T01:47:14.981Z,89.90
2019-02-22T01:50:03.320Z,94.00
2019-02-22T01:52:51.532Z,82.07
2019-02-22T01:55:39.013Z,89.93
2019-02-22T01:58:26.708Z,88.23
2019-02-22T02:01:15.091Z,90.80
2019-02-22T02:04:03.293Z,87.97
2019-02-22T02:06:51.512Z,83.60
2019-02-22T02:09:40.164Z,88.83
2019-02-22T02:12:28.209Z,82.47
2019-02-22T02:15:16.548Z,85.73
2019-02-22T02:18:04.229Z,82.13
2019-02-22T02:20:52.149Z,81.50
2019-02-22T02:23:40.513Z,85.43
2019-02-22T02:26:28.620Z,95.50
2019-02-22T02:29:16.803Z,89.40
2019-02-22T02:32:05.258Z,90.83
2019-02-22T02:34:52.966Z,76.80
2019-02-22T02:37:40.503Z,87.57
2019-02-22T02:40:28.794Z,89.47
2019-02-22T02:43:17.004Z,85.40
2019-02-22T02:46:05.331Z,88.67
2019-02-22T02:48:53.688Z,87.23
2019-02-22T02:51:41.516Z,84.47
2019-02-22T02:54:29.740Z,86.80
2019-02-22T02:57:18.244Z,86.70
2019-02-22T03:00:08.275Z,82.63
2019-02-22T03:02:56.333Z,78.50
2019-02-22T03:06:07.872Z,85.30
2019-02-22T03:08:56.157Z,80.57
2019-02-22T03:11:44.467Z,90.50
2019-02-22T03:14:32.035Z,80.10
2019-02-22T03:17:20.371Z,88.93
2019-02-22T03:20:08.793Z,84.10
2019-02-22T03:22:56.641Z,79.93
2019-02-22T03:25:44.662Z,75.73
2019-02-22T03:28:33.074Z,77.53
2019-02-22T03:31:21.374Z,78.73
2019-02-22T03:34:09.953Z,81.27
2019-02-22T03:36:57.765Z,79.77
2019-02-22T03:39:45.683Z,78.63
2019-02-22T03:42:33.845Z,76.50
2019-02-22T03:45:22.315Z,79.40
2019-02-22T03:48:10.887Z,78.80
2019-02-22T03:50:58.896Z,73.73
2019-02-22T03:53:57.532Z,75.40
2019-02-22T03:56:45.755Z,75.03
2019-02-22T03:59:33.620Z,76.60
2019-02-22T04:02:22.158Z,77.73
2019-02-22T04:05:11.101Z,72.10
2019-02-22T04:07:59.660Z,70.23
2019-02-22T04:10:48.144Z,70.60
2019-02-22T04:13:36.728Z,71.53
2019-02-22T04:16:25.191Z,74.40
2019-02-22T04:19:12.784Z,71.50
2019-02-22T04:22:00.541Z,72.40
2019-02-22T04:24:48.913Z,67.30
2019-02-22T04:27:37.389Z,67.13
2019-02-22T04:30:24.980Z,70.10
2019-02-22T04:33:13.220Z,65.87
2019-02-22T04:36:01.500Z,67.07
2019-02-22T04:38:50.084Z,62.80
2019-02-22T04:41:38.047Z,70.40
2019-02-22T04:44:25.932Z,61.23
2019-02-22T04:47:14.427Z,68.80
2019-02-22T04:50:02.687Z,70.00
2019-02-22T04:52:50.597Z,64.03
2019-02-22T04:55:39.177Z,62.70
2019-02-22T04:58:27.223Z,61.13
2019-02-22T05:01:15.804Z,67.97
2019-02-22T05:04:03.661Z,65.43
2019-02-22T05:06:51.405Z,64.43
2019-02-22T05:09:39.700Z,65.23
2019-02-22T05:12:27.304Z,63.07
2019-02-22T05:15:15.660Z,72.30
2019-02-22T05:18:04.056Z,67.87
2019-02-22T05:20:52.248Z,63.43
2019-02-22T05:23:41.005Z,65.53
2019-02-22T05:26:29.118Z,63.07
2019-02-22T05:29:17.788Z,63.80
2019-02-22T05:32:05.975Z,69.77
2019-02-22T05:34:54.044Z,70.30
2019-02-22T05:37:41.859Z,68.20
2019-02-22T05:40:29.931Z,71.40
2019-02-22T05:43:17.914Z,70.13
2019-02-22T05:46:06.181Z,63.87
2019-02-22T05:48:54.498Z,71.80
2019-02-22T05:51:42.415Z,68.43
2019-02-22T05:54:29.956Z,69.60
2019-02-22T05:57:18.255Z,70.60
2019-02-22T06:00:07.217Z,70.20
2019-02-22T06:02:55.636Z,67.83
2019-02-22T06:05:43.595Z,66.23
2019-02-22T06:08:31.871Z,61.13
2019-02-22T06:11:19.721Z,63.37
2019-02-22T06:14:08.458Z,63.67
2019-02-22T06:16:56.576Z,61.23
2019-02-22T06:19:44.428Z,70.80
2019-02-22T06:22:32.580Z,68.37
2019-02-22T06:25:20.326Z,67.50
2019-02-22T06:28:08.440Z,66.57
2019-02-22T06:30:56.892Z,65.53
2019-02-22T06:33:45.163Z,69.13
2019-02-22T06:36:33.400Z,67.47
2019-02-22T06:39:21.678Z,68.23
2019-02-22T06:42:09.989Z,59.33
2019-02-22T06:44:58.232Z,66.40
2019-02-22T06:47:46.845Z,71.30
2019-02-22T06:50:34.744Z,65.00
2019-02-22T06:53:23.383Z,65.37
2019-02-22T06:56:10.936Z,62.33
2019-02-22T06:58:59.357Z,67.10
2019-02-22T07:01:50.018Z,63.43
2019-02-22T07:04:37.697Z,67.17
2019-02-22T07:07:25.292Z,71.47
2019-02-22T07:10:12.994Z,65.70
2019-02-22T07:13:04.696Z,62.90
2019-02-22T07:15:52.652Z,63.40
2019-02-22T07:18:40.916Z,61.67
2019-02-22T07:21:43.676Z,58.93
2019-02-22T07:24:18.549Z,61.17
2019-02-22T07:27:06.672Z,54.57
2019-02-22T07:29:55.208Z,59.77
2019-02-22T07:32:43.407Z,55.93
2019-02-22T07:35:32.084Z,57.07
2019-02-22T07:38:19.694Z,59.50
2019-02-22T07:41:07.232Z,62.90
2019-02-22T07:43:54.971Z,55.43
2019-02-22T07:46:43.333Z,54.00
2019-02-22T07:49:31.732Z,54.17
2019-02-22T07:52:19.566Z,55.00
2019-02-22T07:55:08.533Z,53.37
2019-02-22T07:57:57.108Z,49.27
2019-02-22T08:00:45.064Z,54.73
2019-02-22T08:03:33.576Z,47.80
2019-02-22T08:06:21.976Z,50.03
2019-02-22T08:09:10.198Z,47.70
2019-02-22T08:11:58.093Z,48.30
2019-02-22T08:14:46.083Z,46.77
2019-02-22T08:17:34.071Z,47.27
2019-02-22T08:20:22.483Z,44.83
2019-02-22T08:23:10.493Z,41.50
2019-02-22T08:25:59.387Z,42.77
2019-02-22T08:28:47.510Z,51.70
2019-02-22T08:31:36.273Z,44.87
2019-02-22T08:34:24.183Z,40.43
2019-02-22T08:37:12.267Z,39.60
2019-02-22T08:40:02.384Z,38.50
2019-02-22T08:42:49.971Z,43.83
2019-02-22T08:45:38.474Z,41.87
2019-02-22T08:48:26.026Z,43.20
2019-02-22T08:51:14.246Z,40.20
2019-02-22T08:54:02.485Z,38.67
2019-02-22T08:56:50.786Z,39.67
2019-02-22T08:59:38.787Z,38.10
2019-02-22T09:02:26.756Z,35.70
2019-02-22T09:05:15.463Z,36.43
2019-02-22T09:08:04.181Z,37.57
2019-02-22T09:11:00.096Z,38.37
2019-02-22T09:13:43.891Z,33.57
2019-02-22T09:16:32.244Z,34.53
2019-02-22T09:19:20.462Z,34.40
2019-02-22T09:22:08.828Z,33.63
2019-02-22T09:24:57.194Z,34.57
2019-02-22T09:27:44.751Z,33.60
2019-02-22T09:30:32.519Z,32.27
2019-02-22T09:33:19.964Z,34.13
2019-02-22T09:36:08.467Z,32.93
2019-02-22T09:38:56.103Z,32.93
2019-02-22T09:41:44.304Z,33.50
2019-02-22T09:44:32.247Z,29.87
2019-02-22T09:47:20.799Z,27.33
2019-02-22T09:50:09.792Z,27.70
2019-02-22T09:52:58.041Z,29.00
2019-02-22T09:55:46.246Z,26.80
2019-02-22T09:58:34.727Z,27.40
2019-02-22T10:01:23.265Z,29.40
2019-02-22T10:04:11.479Z,27.17
2019-02-22T10:06:59.459Z,27.03
2019-02-22T10:09:47.047Z,26.57
2019-02-22T10:12:35.086Z,24.80
2019-02-22T10:15:23.268Z,25.27
2019-02-22T10:18:11.846Z,24.53
2019-02-22T10:21:00.183Z,23.77
2019-02-22T10:23:48.510Z,22.23
2019-02-22T10:26:36.789Z,22.40
2019-02-22T10:29:24.287Z,22.07
2019-02-22T10:32:12.416Z,21.97
2019-02-22T10:35:00.527Z,20.27
2019-02-22T10:37:49.135Z,18.77
2019-02-22T10:40:39.214Z,18.97
2019-02-22T10:43:27.333Z,21.47
2019-02-22T10:46:14.942Z,23.30
2019-02-22T10:49:03.267Z,23.23
2019-02-22T10:51:51.835Z,25.80
2019-02-22T10:54:40.015Z,27.37
2019-02-22T10:57:28.002Z,25.40
2019-02-22T11:00:15.882Z,26.83
2019-02-22T11:03:04.374Z,24.43
2019-02-22T11:05:51.867Z,20.07
2019-02-22T11:08:39.976Z,22.37
2019-02-22T11:11:28.491Z,18.57
2019-02-22T11:14:16.563Z,17.60
2019-02-22T11:17:05.625Z,18.13
2019-02-22T11:19:53.659Z,18.20
2019-02-22T11:22:41.960Z,15.20
2019-02-22T11:25:30.155Z,16.27
2019-02-22T11:28:18.598Z,19.27
2019-02-22T11:31:06.650Z,19.13
2019-02-22T11:33:55.024Z,23.50
2019-02-22T11:36:43.169Z,25.27
2019-02-22T11:39:30.976Z,22.23
2019-02-22T11:42:19.160Z,23.93
2019-02-22T11:45:07.487Z,22.50
2019-02-22T11:47:56.145Z,21.40
2019-02-22T11:50:44.095Z,23.73
2019-02-22T11:53:32.515Z,22.47
2019-02-22T11:56:20.853Z,21.30
2019-02-22T11:59:08.650Z,22.23
2019-02-22T12:01:57.776Z,25.50
2019-02-22T12:04:46.260Z,25.93
2019-02-22T12:07:34.935Z,26.20
2019-02-22T12:10:23.559Z,25.63
2019-02-22T12:13:11.653Z,28.13
2019-02-22T12:15:59.933Z,26.67
2019-02-22T12:18:48.536Z,28.53
2019-02-22T12:21:37.312Z,20.80
2019-02-22T12:24:25.579Z,19.00
2019-02-22T12:27:14.271Z,21.67
2019-02-22T12:30:02.546Z,24.93
2019-02-22T12:32:51.055Z,27.30
2019-02-22T12:35:39.143Z,24.63
2019-02-22T12:38:28.416Z,24.83
2019-02-22T12:41:16.101Z,28.60
2019-02-22T12:44:03.639Z,25.53
2019-02-22T12:46:51.854Z,25.03
2019-02-22T12:49:40.396Z,24.03
2019-02-22T12:52:28.491Z,24.83
2019-02-22T12:55:16.176Z,21.57
2019-02-22T12:58:04.537Z,21.23
2019-02-22T13:00:52.652Z,19.67
2019-02-22T13:03:40.970Z,24.07
2019-02-22T13:06:29.175Z,26.93
2019-02-22T13:09:17.415Z,25.50
2019-02-22T13:12:13.584Z,29.00
2019-02-22T13:14:54.793Z,26.00
2019-02-22T13:17:43.041Z,25.90
2019-02-22T13:20:31.760Z,28.20
2019-02-22T13:23:20.082Z,26.83
2019-02-22T13:26:08.619Z,27.50
2019-02-22T13:28:56.891Z,28.13
2019-02-22T13:31:44.659Z,24.50
2019-02-22T13:34:32.822Z,29.13
2019-02-22T13:37:20.691Z,27.90
2019-02-22T13:40:10.342Z,26.53
2019-02-22T13:42:58.844Z,30.90
2019-02-22T13:45:47.464Z,30.47
2019-02-22T13:48:35.880Z,26.07
2019-02-22T13:51:24.236Z,25.23
2019-02-22T13:54:12.573Z,27.17
2019-02-22T13:57:00.119Z,23.80
2019-02-22T13:59:48.278Z,36.60
2019-02-22T14:02:36.923Z,29.47
2019-02-22T14:05:25.143Z,33.40
2019-02-22T14:08:13.405Z,34.40
2019-02-22T14:11:01.545Z,34.00
2019-02-22T14:13:49.043Z,29.60
2019-02-22T14:16:37.655Z,31.13
2019-02-22T14:19:25.946Z,30.37
2019-02-22T14:22:13.883Z,30.70
2019-02-22T14:25:01.731Z,32.47
2019-02-22T14:27:50.434Z,29.93
2019-02-22T14:30:38.738Z,32.07
2019-02-22T14:33:26.980Z,29.13
2019-02-22T14:36:14.919Z,29.90
2019-02-22T14:39:03.050Z,29.23
2019-02-22T14:41:50.591Z,32.63
2019-02-22T14:44:39.067Z,30.47
2019-02-22T14:47:27.090Z,32.87
2019-02-22T14:50:15.492Z,32.60
2019-02-22T14:53:03.874Z,35.10
2019-02-22T14:55:51.682Z,32.53
2019-02-22T14:58:39.639Z,34.77
2019-02-22T15:01:27.458Z,32.37
2019-02-22T15:04:16.537Z,34.43
2019-02-22T15:07:05.405Z,32.33
2019-02-22T15:09:53.591Z,33.13
2019-02-22T15:12:41.526Z,33.47
2019-02-22T15:15:59.923Z,34.10
2019-02-22T15:18:38.027Z,33.33
2019-02-22T15:21:26.307Z,31.87
2019-02-22T15:24:14.163Z,37.57
2019-02-22T15:27:01.698Z,35.40
2019-02-22T15:29:50.176Z,37.20
2019-02-22T15:32:38.509Z,33.90
2019-02-22T15:35:26.956Z,37.30
2019-02-22T15:38:14.948Z,36.90
2019-02-22T15:41:03.519Z,35.23
2019-02-22T15:43:51.794Z,43.17
2019-02-22T15:46:39.346Z,38.50
2019-02-22T15:49:27.700Z,40.50
2019-02-22T15:52:15.818Z,36.67
2019-02-22T15:55:04.708Z,45.60
2019-02-22T15:57:52.992Z,45.07
2019-02-22T16:00:41.503Z,45.20
2019-02-22T16:03:48.751Z,48.37
2019-02-22T16:06:36.499Z,44.83
2019-02-22T16:09:25.182Z,43.07
2019-02-22T16:12:13.110Z,40.87
2019-02-22T16:15:01.540Z,42.37
2019-02-22T16:17:49.144Z,38.50
2019-02-22T16:20:37.724Z,37.97
2019-02-22T16:23:25.595Z,39.00
2019-02-22T16:26:15.623Z,39.30
2019-02-22T16:29:03.626Z,35.93
2019-02-22T16:31:52.374Z,39.17
2019-02-22T16:34:43.631Z,34.80
2019-02-22T16:37:30.485Z,39.30
2019-02-22T16:40:18.780Z,40.80
2019-02-22T16:43:06.568Z,37.07
2019-02-22T16:45:54.940Z,36.90
2019-02-22T16:48:43.736Z,43.50
2019-02-22T16:51:31.536Z,42.00
2019-02-22T16:54:20.035Z,39.17
2019-02-22T16:57:07.754Z,37.63
2019-02-22T16:59:56.353Z,42.97
2019-02-22T17:02:44.341Z,41.47
2019-02-22T17:05:32.723Z,39.87
2019-02-22T17:08:21.540Z,35.00
2019-02-22T17:11:09.524Z,36.10
2019-02-22T17:13:57.996Z,37.20
2019-02-22T17:16:46.821Z,34.97
2019-02-22T17:19:35.159Z,46.37
2019-02-22T17:22:22.783Z,35.40
2019-02-22T17:25:12.493Z,38.37
2019-02-22T17:28:00.976Z,37.80
2019-02-22T17:30:49.641Z,33.80
2019-02-22T17:33:37.507Z,34.70
2019-02-22T17:36:27.229Z,40.00
2019-02-22T17:39:15.444Z,37.63
2019-02-22T17:42:03.127Z,43.10
2019-02-22T17:44:51.895Z,41.57
2019-02-22T17:47:40.495Z,37.93
2019-02-22T17:50:28.852Z,42.73
2019-02-22T17:53:17.185Z,41.30
2019-02-22T17:56:05.184Z,43.83
2019-02-22T17:58:52.720Z,37.80
2019-02-22T18:01:40.834Z,48.30
2019-02-22T18:04:29.219Z,38.63
2019-02-22T18:07:17.531Z,41.53
2019-02-22T18:10:05.612Z,51.13
2019-02-22T18:12:54.192Z,40.97
2019-02-22T18:15:42.418Z,41.97
2019-02-22T18:18:30.804Z,44.20
2019-02-22T18:21:19.083Z,46.10
2019-02-22T18:24:07.372Z,41.30
2019-02-22T18:26:55.983Z,45.27
2019-02-22T18:29:44.468Z,44.83
2019-02-22T18:32:32.801Z,45.67
2019-02-22T18:35:20.904Z,41.93
2019-02-22T18:38:08.679Z,46.00
2019-02-22T18:40:57.216Z,45.30
2019-02-22T18:43:45.902Z,42.90
2019-02-22T18:46:34.208Z,38.40
2019-02-22T18:49:22.263Z,33.73
2019-02-22T18:52:10.924Z,36.93
2019-02-22T18:54:59.337Z,34.03
2019-02-22T18:57:47.687Z,37.60
2019-02-22T19:00:36.330Z,34.80
2019-02-22T19:03:24.407Z,38.50
2019-02-22T19:06:11.969Z,35.83
2019-02-22T19:09:00.260Z,32.90
2019-02-22T19:11:49.195Z,31.30
2019-02-22T19:14:37.232Z,35.10
2019-02-22T19:17:30.326Z,30.57
2019-02-22T19:20:15.746Z,34.37
2019-02-22T19:23:04.181Z,30.17
2019-02-22T19:25:51.919Z,28.27
2019-02-22T19:28:40.220Z,27.47
2019-02-22T19:31:28.169Z,30.80
2019-02-22T19:34:16.369Z,30.80
2019-02-22T19:37:04.588Z,30.83
2019-02-22T19:39:52.912Z,29.03
2019-02-22T19:42:41.532Z,29.47
2019-02-22T19:45:30.008Z,27.77
2019-02-22T19:48:18.187Z,30.77
2019-02-22T19:51:06.023Z,27.40
2019-02-22T19:53:54.729Z,26.50
2019-02-22T19:56:43.237Z,27.90
2019-02-22T19:59:32.515Z,25.53
2019-02-22T20:02:21.052Z,30.63
2019-02-22T20:05:10.602Z,22.57
2019-02-22T20:07:58.943Z,22.13
2019-02-22T20:10:47.303Z,25.20
2019-02-22T20:13:35.760Z,24.50
2019-02-22T20:16:24.596Z,21.30
2019-02-22T20:19:13.318Z,22.37
2019-02-22T20:22:01.627Z,22.47
2019-02-22T20:24:49.472Z,23.20
2019-02-22T20:27:37.381Z,26.30
2019-02-22T20:30:25.379Z,27.57
2019-02-22T20:33:14.064Z,27.50
2019-02-22T20:36:01.825Z,19.77
2019-02-22T20:38:50.172Z,22.70
2019-02-22T20:41:38.607Z,23.83
2019-02-22T20:44:27.055Z,25.03
2019-02-22T20:47:14.932Z,24.90
2019-02-22T20:50:03.349Z,28.23
2019-02-22T20:52:51.833Z,26.40
2019-02-22T20:55:39.958Z,26.97
2019-02-22T20:58:28.208Z,25.70
2019-02-22T21:01:16.484Z,25.40
2019-02-22T21:04:04.733Z,29.57
2019-02-22T21:06:52.558Z,26.97
2019-02-22T21:09:40.481Z,27.83
2019-02-22T21:12:28.623Z,26.80
2019-02-22T21:15:16.975Z,31.27
2019-02-22T21:18:15.600Z,35.00
2019-02-22T21:20:54.174Z,28.10
2019-02-22T21:23:42.662Z,34.20
2019-02-22T21:26:31.266Z,30.50
2019-02-22T21:29:19.487Z,31.00
2019-02-22T21:32:07.678Z,35.73
2019-02-22T21:34:55.990Z,32.73
2019-02-22T21:37:44.455Z,29.03
2019-02-22T21:40:32.495Z,27.07
2019-02-22T21:43:21.031Z,32.17
2019-02-22T21:46:09.313Z,34.43
2019-02-22T21:48:57.955Z,32.00
2019-02-22T21:51:46.059Z,33.77
2019-02-22T21:54:33.903Z,33.37
2019-02-22T21:57:22.130Z,33.90
2019-02-22T22:00:13.425Z,39.80
2019-02-22T22:03:01.782Z,33.40
2019-02-22T22:05:50.762Z,33.80
2019-02-22T22:08:38.679Z,36.57
2019-02-22T22:11:26.651Z,31.00
2019-02-22T22:14:15.011Z,34.87
2019-02-22T22:17:03.270Z,34.10
2019-02-22T22:19:51.891Z,33.17
2019-02-22T22:22:40.460Z,34.53
2019-02-22T22:25:28.096Z,29.50
2019-02-22T22:28:16.490Z,29.23
2019-02-22T22:31:04.628Z,30.77
2019-02-22T22:33:52.546Z,33.80
2019-02-22T22:36:41.004Z,33.00
2019-02-22T22:39:29.216Z,38.60
2019-02-22T22:42:16.991Z,36.67
2019-02-22T22:45:06.102Z,34.43
2019-02-22T22:47:54.634Z,32.30
2019-02-22T22:50:42.282Z,35.07
2019-02-22T22:53:30.911Z,31.30
2019-02-22T22:56:18.732Z,35.43
2019-02-22T22:59:06.975Z,40.17
2019-02-22T23:01:56.395Z,33.40
2019-02-22T23:04:44.106Z,33.33
2019-02-22T23:07:32.023Z,33.60
2019-02-22T23:10:20.310Z,34.97
2019-02-22T23:13:08.987Z,33.93
2019-02-22T23:15:57.341Z,32.00
2019-02-22T23:18:45.987Z,33.67
2019-02-22T23:21:34.770Z,38.80
2019-02-22T23:24:22.801Z,34.73
2019-02-22T23:27:11.346Z,33.23
2019-02-22T23:29:59.561Z,35.07
2019-02-22T23:32:47.716Z,31.33
2019-02-22T23:35:35.923Z,31.23
2019-02-22T23:38:24.176Z,32.60
2019-02-22T23:41:12.544Z,37.67
2019-02-22T23:44:01.423Z,30.80
2019-02-22T23:46:49.270Z,29.47
2019-02-22T23:49:37.694Z,31.40
2019-02-22T23:52:26.182Z,34.50
2019-02-22T23:55:15.027Z,30.43
2019-02-22T23:58:03.704Z,29.33
